OITK  Khoy  Airport

Khoy, Iran

Add Bookmark
ICAO OITK
IATA KHY
Type Airport
Status Operational
Latitude
38° 25' 39" N
38.427502
Longitude
44° 58' 24" E
44.973598
Local (DST + 5) UTC (GMT + 4)
Feb 10, 2016 12:09 Feb 10, 2016 08:39
Sunrise-Sunset Local UTC
Begin Civil Twilight 06:57 03:27
Sunrise 07:25 03:55
Sunset 06:03 14:33
End Civil Twilight 06:30 15:00
VFR
VFR
MVFR
MVFR
IFR
IFR
LIFR
LIFR
Unknown
Unavailable

Current Weather

METAR Observed VFR
OITK 100800Z 00000KT 9000 FEW035 M00/M06 Q1025 Wed, Feb 10, 2016 @ 08:00 UTC
(39 Minutes ago)
Visual Flight Rules
Wind Visibility Clouds Conditions
Calm 8,996 m
  • Few at 3,500 ft AGL
  • No significant weather
Temperatures Readings Precipitation
Current Temp
0°C
32°F
Dewpoint
-6°C
21°F
Humidity 64%
Altimeter 30.27" Hg
Sea Level Pressure 1,025 mb
Field Elevation
1,107 m
3,632 ft
None Recorded
-
-

CheckWX.com is intended as a tool to help pilots better visualize weather data. It is not intended as a substitute for an official weather briefing obtained from a Flight Service Station. CheckWX.com does not meet the FAA requirements for an official pre-flight weather briefing. Therefore, it's important that pilots still call and obtain an official FSS pre-flight weather briefing.

© 2007-2016 CheckWX.com
08:39:16 UTC